Hawaii
Oahu
Maui
Big Island
Molokai
Kauai

ALL OF HAWAII WEATHER

Latest Infrared (IR) Satellite Image

North Pacific Surface Analysis Loop

NOAA/NWS Satellite Loops – State of Hawaii (IR)

NOAA/NWS Satellite Loops – State of Hawaii (Visible)

Latest Satellite Loop (Enhanced IR)


Latest Radar Loop (NEXRAD)


Current Jet Stream Analysis

Storm Tracker

Hawaii Lo-Level Sig Progs – 0 Hr

Hawaii Lo-Level Sig Progs – 12 Hr

Global Storm Tracker & Sea Surface Temps

OAHU WEATHER

Weather Station (Near Diamond Head)

September 18, 2019, 12:45 am
27.4
°C
27.6
°C
27.4
°C
29.92
inHg
69
%
1.0
kt
2.0
kt
max
0.00
in/h
0.00
in
today
2500
ft
21.2
°C
Available data for PHNL from the past 2 hours
HONOLULU, HI
Metar
PHNL 180953Z 08010KT 10SM FEW038 24/20 A2993 RMK AO2 SLP135 T02390200 402940239

09:53 UTC

Wind: 80° 10kt

Visibility: 10 SM

Sky: FEW 3800 ft

Temp: 24 deg C / 75.2 deg F

Dewpoint: 20 deg C / 68 deg F

Pressure: 29.93 inHg

TAF
PHNL 180833Z 1809/1912 06008KT P6SM FEW025 SCT045 FM182000 07013G19KT P6SM FEW025 SCT045 FM190500 07010KT P6SM FEW025 SCT045
Available data for PHJR from the past 2 hours
KALAELOA, HI
Metar
PHJR 180953Z 05003KT 10SM FEW034 26/21 A2995 RMK AO2 SLP147 T02610211 403220239

09:53 UTC

Wind: 50° 3kt

Visibility: 10 SM

Sky: FEW 3400 ft

Temp: 26 deg C / 78.8 deg F

Dewpoint: 21 deg C / 69.8 deg F

Pressure: 29.95 inHg

TAF
PHJR 180520Z 1806/1906 06005KT P6SM FEW030 SCT050 FM182000 12009G17KT P6SM FEW030 SCT050 FM190400 07007KT P6SM FEW030 SCT050
Available data for PHNG from the past 2 hours
KANEOHE MCAS, HI
Metar
PHNG 180957Z 09011G17KT 10SM CLR 27/21 A2991 RMK AO2 SLP124 T02720211 403170272

09:57 UTC

Wind: 90° 11kt

Visibility: 10 SM

Sky:

Temp: 27 deg C / 80.6 deg F

Dewpoint: 21 deg C / 69.8 deg F

Pressure: 29.91 inHg

TAF
TAF PHNG 1809/1909 11010KT 9999 FEW020 SCT045 QNH2985INS TEMPO 1812/1818 09012G18KT BKN025 TEMPO 1905/1909 09010G18KT T26/1812Z T31/1821Z
Available data for PHHI from the past 2 hours
WHEELER AFB/OAHU, HI
Metar
PHHI 180956Z AUTO 00000KT 10SM SCT037 BKN047 25/20 A2996 RMK AO2 SLP132 T02480196 403020221

09:56 UTC

Wind: 0° 0kt

Visibility: 10 SM

Sky: SCT 3700 ft

Temp: 25 deg C / 77 deg F

Dewpoint: 20 deg C / 68 deg F

Pressure: 29.96 inHg

TAF
TAF PHHI 180700Z 1807/1913 VRB06KT 9999 FEW035 QNH2990INS BECMG 1819/1820 09010G15KT 9999 SCT035 QNH2987INS BECMG 1905/1906 VRB06KT 9999 SCT040 QNH2988INS TX31/1823Z TN22/1817Z

NOAA/NWS Satellite Loop – Oahu (Visible)

MAUI WEATHER

NOAA/NWS Satellite Loop – Maui (Visible)

Latest radar loops (NEXRAD) – Maui

Kamuela NEXRAD

Available data for PHOG from the past 2 hours
KAHULUI, HI
Metar
PHOG 180954Z AUTO 10009KT 10SM CLR 27/19 A2992 RMK AO2 SLP136 T02670189 403500222 TSNO

09:54 UTC

Wind: 100° 9kt

Visibility: 10 SM

Sky:

Temp: 27 deg C / 80.6 deg F

Dewpoint: 19 deg C / 66.2 deg F

Pressure: 29.92 inHg

TAF
PHOG 180949Z 1810/1906 07010KT P6SM FEW030 SCT060 FM182000 06017G26KT P6SM FEW030 SCT060 AMD LTD TO VIS AND WIND TIL 181600
Available data for PHJH from the past 2 hours
LAHAINA/WEST MAU, HI
TAF
PHJH 172341Z 1800/1824 05012G18KT P6SM FEW030 FM180500 06007KT P6SM SCT030 SCT050 FM182200 06010KT P6SM BKN030 BKN050

BIG ISLAND WEATHER

Latest Radar Loop (NEXRAD) – Big Island

NOAA/NWS Satellite Loop – Big Island (Visible)

Available data for PHKO from the past 2 hours
KAILUA/KONA, HI
Metar
PHKO 180953Z AUTO 11003KT 10SM FEW022 SCT028 OVC040 27/22 A2990 RMK AO2 SLP124 T02670222 403060261 TSNO

09:53 UTC

Wind: 110° 3kt

Visibility: 10 SM

Sky: FEW 2200 ft

Temp: 27 deg C / 80.6 deg F

Dewpoint: 22 deg C / 71.6 deg F

Pressure: 29.9 inHg

TAF
PHKO 180520Z 1806/1906 17006KT P6SM VCSH FEW025 BKN060 FM180900 15005KT P6SM VCSH FEW025 BKN060 FM181400 10005KT P6SM SCT060 FM182000 23011KT P6SM FEW060 FM190200 20008KT P6SM VCSH FEW025 BKN060
Available data for PHTO from the past 2 hours
HILO, HI
Metar
PHTO 181028Z AUTO 22004KT 10SM SCT023 BKN065 25/21 A2995 RMK AO2 T02500206 TSNO

10:28 UTC

Wind: 220° 4kt

Visibility: 10 SM

Sky: SCT 2300 ft

Temp: 25 deg C / 77 deg F

Dewpoint: 21 deg C / 69.8 deg F

Pressure: 29.95 inHg

TAF
PHTO 180520Z 1806/1906 VRB06KT P6SM VCSH FEW025 BKN050 FM180900 23004KT P6SM VCSH FEW025 BKN050 FM182100 09009KT P6SM VCSH FEW025 BKN050 FM190400 VRB05KT P6SM VCSH SCT025 BKN045

MOLOKAI WEATHER

Latest Radar Loop (NEXRAD) – Molokai (HMO)

Molokai NEXRAD

Available data for PHMK from the past 2 hours
MOLOKAI, HI
Metar
PHMK 180954Z AUTO 03006KT 10SM CLR 26/20 A2995 RMK AO2 SLP139 T02610200 403390217 TSNO

09:54 UTC

Wind: 30° 6kt

Visibility: 10 SM

Sky:

Temp: 26 deg C / 78.8 deg F

Dewpoint: 20 deg C / 68 deg F

Pressure: 29.95 inHg

TAF
PHMK 180520Z 1806/1906 05008KT P6SM FEW025 SCT045 FM182000 05013G19KT P6SM FEW030 SCT045

KAUAI WEATHER

NOAA/NWS Satellite Loop – Kauai (Visible)

Latest radar loops (NEXRAD) – South Kauai (HKI)

Kauai NEXRAD

Available data for PHLI from the past 2 hours
LIHUE/KAUAI IS, HI
Metar
PHLI 180953Z AUTO 10013KT 10SM CLR 28/23 A2995 RMK AO2 SLP137 T02780228 403110239 TSNO $

09:53 UTC

Wind: 100° 13kt

Visibility: 10 SM

Sky:

Temp: 28 deg C / 82.4 deg F

Dewpoint: 23 deg C / 73.4 deg F

Pressure: 29.95 inHg

TAF
PHLI 180520Z 1806/1906 08011KT P6SM VCSH SCT020 BKN045 FM182000 09012KT P6SM FEW023 SCT045
Available data for PHBK from the past 2 hours
BARKING SANDS/KA, HI
Metar
PHBK 180956Z AUTO 00000KT 10SM CLR 26/20 A2991 RMK AO2 SLP132 T02610200 403170256

09:56 UTC

Wind: 0° 0kt

Visibility: 10 SM

Sky:

Temp: 26 deg C / 78.8 deg F

Dewpoint: 20 deg C / 68 deg F

Pressure: 29.91 inHg

DISCLAIMER: We do not endorse any specific product or service.  Always verify information provided. Refer to latest FAA publications, charts & recommendations.